sensor_id;sensor_type;location;lat;lon;timestamp;pressure;altitude;pressure_sealevel;temperature;humidity
38253;BME280;24785;52.372;20.672;2022-12-20T00:00:16;101421.97;;;-1.38;100.00
38253;BME280;24785;52.372;20.672;2022-12-20T00:10:39;101408.84;;;-1.15;100.00
38253;BME280;24785;52.372;20.672;2022-12-20T00:20:40;101405.19;;;-1.06;100.00
38253;BME280;24785;52.372;20.672;2022-12-20T00:30:41;101397.59;;;-1.01;100.00
38253;BME280;24785;52.372;20.672;2022-12-20T00:40:42;101384.09;;;-0.98;100.00
38253;BME280;24785;52.372;20.672;2022-12-20T00:50:43;101380.13;;;-0.93;100.00
38253;BME280;24785;52.372;20.672;2022-12-20T01:00:44;101361.66;;;-0.85;100.00
38253;BME280;24785;52.372;20.672;2022-12-20T01:10:45;101346.91;;;-0.72;100.00
38253;BME280;24785;52.372;20.672;2022-12-20T01:20:46;101319.22;;;-0.68;100.00
38253;BME280;24785;52.372;20.672;2022-12-20T01:30:47;101311.44;;;-0.61;100.00
38253;BME280;24785;52.372;20.672;2022-12-20T01:40:47;101288.19;;;-0.57;100.00
38253;BME280;24785;52.372;20.672;2022-12-20T01:50:49;101273.13;;;-0.49;100.00
38253;BME280;24785;52.372;20.672;2022-12-20T02:00:50;101252.44;;;-0.52;100.00
38253;BME280;24785;52.372;20.672;2022-12-20T02:11:11;101264.19;;;-0.40;100.00
38253;BME280;24785;52.372;20.672;2022-12-20T02:31:30;101250.91;;;-0.32;100.00
38253;BME280;24785;52.372;20.672;2022-12-20T02:41:35;101230.13;;;-0.26;100.00
38253;BME280;24785;52.372;20.672;2022-12-20T02:51:40;101212.75;;;-0.21;100.00
38253;BME280;24785;52.372;20.672;2022-12-20T03:01:46;101218.47;;;-0.17;100.00
38253;BME280;24785;52.372;20.672;2022-12-20T03:11:48;101238.63;;;-0.10;100.00
38253;BME280;24785;52.372;20.672;2022-12-20T03:21:50;101214.38;;;-0.05;100.00
38253;BME280;24785;52.372;20.672;2022-12-20T03:31:51;101214.47;;;0.02;100.00
38253;BME280;24785;52.372;20.672;2022-12-20T03:41:52;101211.72;;;0.10;100.00
38253;BME280;24785;52.372;20.672;2022-12-20T03:51:53;101222.91;;;0.12;100.00
38253;BME280;24785;52.372;20.672;2022-12-20T04:01:55;101186.44;;;0.15;100.00
38253;BME280;24785;52.372;20.672;2022-12-20T04:11:56;101167.19;;;0.15;100.00
38253;BME280;24785;52.372;20.672;2022-12-20T04:21:57;101172.72;;;0.20;100.00
38253;BME280;24785;52.372;20.672;2022-12-20T04:31:58;101185.38;;;0.10;100.00
38253;BME280;24785;52.372;20.672;2022-12-20T04:41:59;101186.50;;;0.01;100.00
38253;BME280;24785;52.372;20.672;2022-12-20T04:52:00;101181.28;;;0.07;100.00
38253;BME280;24785;52.372;20.672;2022-12-20T05:02:21;101160.22;;;0.07;100.00
38253;BME280;24785;52.372;20.672;2022-12-20T05:12:22;101152.75;;;0.11;100.00
38253;BME280;24785;52.372;20.672;2022-12-20T05:22:23;101143.91;;;0.18;100.00
38253;BME280;24785;52.372;20.672;2022-12-20T05:32:43;101149.88;;;0.27;100.00
38253;BME280;24785;52.372;20.672;2022-12-20T05:42:43;101166.44;;;0.42;100.00
38253;BME280;24785;52.372;20.672;2022-12-20T05:52:44;101156.25;;;0.39;100.00
38253;BME280;24785;52.372;20.672;2022-12-20T06:02:45;101158.13;;;0.45;100.00
38253;BME280;24785;52.372;20.672;2022-12-20T06:12:46;101150.34;;;0.37;100.00
38253;BME280;24785;52.372;20.672;2022-12-20T06:22:48;101160.28;;;0.35;100.00
38253;BME280;24785;52.372;20.672;2022-12-20T06:32:49;101147.66;;;0.30;100.00
38253;BME280;24785;52.372;20.672;2022-12-20T06:42:50;101168.44;;;0.40;100.00
38253;BME280;24785;52.372;20.672;2022-12-20T06:52:51;101180.19;;;0.59;100.00
38253;BME280;24785;52.372;20.672;2022-12-20T07:02:52;101194.00;;;0.61;100.00
38253;BME280;24785;52.372;20.672;2022-12-20T07:12:53;101199.81;;;0.78;100.00
38253;BME280;24785;52.372;20.672;2022-12-20T07:22:54;101187.44;;;0.78;100.00
38253;BME280;24785;52.372;20.672;2022-12-20T07:32:55;101197.88;;;0.86;100.00
38253;BME280;24785;52.372;20.672;2022-12-20T07:42:56;101186.31;;;0.87;100.00
38253;BME280;24785;52.372;20.672;2022-12-20T07:52:57;101184.41;;;1.03;100.00
38253;BME280;24785;52.372;20.672;2022-12-20T08:03:04;101172.94;;;1.17;100.00
38253;BME280;24785;52.372;20.672;2022-12-20T08:13:07;101182.56;;;1.31;100.00
38253;BME280;24785;52.372;20.672;2022-12-20T08:23:08;101179.47;;;1.55;100.00
38253;BME280;24785;52.372;20.672;2022-12-20T08:33:09;101191.69;;;1.63;100.00
38253;BME280;24785;52.372;20.672;2022-12-20T08:43:10;101185.41;;;1.71;100.00
38253;BME280;24785;52.372;20.672;2022-12-20T08:53:11;101190.13;;;1.82;100.00
38253;BME280;24785;52.372;20.672;2022-12-20T09:03:13;101193.09;;;2.07;100.00
38253;BME280;24785;52.372;20.672;2022-12-20T09:13:14;101193.00;;;2.41;100.00
38253;BME280;24785;52.372;20.672;2022-12-20T09:23:15;101173.47;;;2.56;100.00
38253;BME280;24785;52.372;20.672;2022-12-20T09:33:16;101167.97;;;2.70;100.00
38253;BME280;24785;52.372;20.672;2022-12-20T09:43:18;101173.88;;;2.59;100.00
38253;BME280;24785;52.372;20.672;2022-12-20T10:03:47;101177.13;;;2.81;100.00
38253;BME280;24785;52.372;20.672;2022-12-20T10:24:06;101171.41;;;2.38;100.00
38253;BME280;24785;52.372;20.672;2022-12-20T10:34:09;101156.72;;;2.29;100.00
38253;BME280;24785;52.372;20.672;2022-12-20T11:04:35;101087.72;;;2.83;100.00
38253;BME280;24785;52.372;20.672;2022-12-20T11:14:37;101097.53;;;2.63;100.00
38253;BME280;24785;52.372;20.672;2022-12-20T11:35:29;101082.09;;;2.40;100.00
38253;BME280;24785;52.372;20.672;2022-12-20T11:55:46;101085.72;;;2.72;100.00
38253;BME280;24785;52.372;20.672;2022-12-20T12:05:59;101076.34;;;2.96;100.00
38253;BME280;24785;52.372;20.672;2022-12-20T12:16:11;101069.75;;;3.11;100.00
38253;BME280;24785;52.372;20.672;2022-12-20T12:26:23;101068.47;;;3.27;95.77
38253;BME280;24785;52.372;20.672;2022-12-20T12:36:29;101038.81;;;3.12;93.66
38253;BME280;24785;52.372;20.672;2022-12-20T12:46:35;101063.13;;;2.76;97.95
38253;BME280;24785;52.372;20.672;2022-12-20T12:56:41;101061.72;;;2.60;100.00
38253;BME280;24785;52.372;20.672;2022-12-20T13:16:52;101079.63;;;2.25;100.00
38253;BME280;24785;52.372;20.672;2022-12-20T13:26:54;101080.44;;;2.19;100.00
38253;BME280;24785;52.372;20.672;2022-12-20T13:36:57;101077.78;;;2.06;100.00
38253;BME280;24785;52.372;20.672;2022-12-20T13:47:27;101083.25;;;1.91;100.00
38253;BME280;24785;52.372;20.672;2022-12-20T13:57:32;101072.03;;;1.82;100.00
38253;BME280;24785;52.372;20.672;2022-12-20T14:07:41;101060.22;;;1.72;100.00
38253;BME280;24785;52.372;20.672;2022-12-20T14:17:43;101050.66;;;1.64;100.00
38253;BME280;24785;52.372;20.672;2022-12-20T14:27:45;101049.84;;;1.64;100.00
38253;BME280;24785;52.372;20.672;2022-12-20T14:37:56;101053.72;;;1.68;100.00
38253;BME280;24785;52.372;20.672;2022-12-20T14:48:01;101037.81;;;1.54;100.00
38253;BME280;24785;52.372;20.672;2022-12-20T15:08:30;101029.47;;;1.44;100.00
38253;BME280;24785;52.372;20.672;2022-12-20T15:18:34;101002.00;;;1.32;100.00
38253;BME280;24785;52.372;20.672;2022-12-20T15:28:35;101005.66;;;1.38;100.00
38253;BME280;24785;52.372;20.672;2022-12-20T15:38:36;101000.56;;;1.36;100.00
38253;BME280;24785;52.372;20.672;2022-12-20T15:48:37;100996.13;;;1.37;100.00
38253;BME280;24785;52.372;20.672;2022-12-20T15:58:38;100984.59;;;1.51;100.00
38253;BME280;24785;52.372;20.672;2022-12-20T16:08:41;100996.78;;;1.52;100.00
38253;BME280;24785;52.372;20.672;2022-12-20T16:18:44;100987.25;;;1.57;100.00
38253;BME280;24785;52.372;20.672;2022-12-20T16:28:47;100999.66;;;1.64;100.00
38253;BME280;24785;52.372;20.672;2022-12-20T16:38:50;100998.84;;;1.63;100.00
38253;BME280;24785;52.372;20.672;2022-12-20T16:48:56;100996.78;;;1.58;100.00
38253;BME280;24785;52.372;20.672;2022-12-20T16:58:58;100980.53;;;1.55;100.00
38253;BME280;24785;52.372;20.672;2022-12-20T17:08:59;100998.00;;;1.56;100.00
38253;BME280;24785;52.372;20.672;2022-12-20T17:19:00;100954.94;;;1.49;100.00
38253;BME280;24785;52.372;20.672;2022-12-20T17:29:01;100968.72;;;1.44;100.00
38253;BME280;24785;52.372;20.672;2022-12-20T17:39:03;100955.94;;;1.54;100.00
38253;BME280;24785;52.372;20.672;2022-12-20T17:49:03;100947.41;;;1.52;100.00
38253;BME280;24785;52.372;20.672;2022-12-20T17:59:05;100959.41;;;1.55;100.00
38253;BME280;24785;52.372;20.672;2022-12-20T18:19:16;100960.81;;;1.57;100.00
38253;BME280;24785;52.372;20.672;2022-12-20T18:29:18;100941.53;;;1.57;100.00
38253;BME280;24785;52.372;20.672;2022-12-20T18:39:19;100940.31;;;1.60;100.00
38253;BME280;24785;52.372;20.672;2022-12-20T18:49:20;100938.69;;;1.65;100.00
38253;BME280;24785;52.372;20.672;2022-12-20T18:59:21;100945.38;;;1.54;100.00
38253;BME280;24785;52.372;20.672;2022-12-20T19:09:23;100954.53;;;1.52;100.00
38253;BME280;24785;52.372;20.672;2022-12-20T19:19:24;100936.81;;;1.39;100.00
38253;BME280;24785;52.372;20.672;2022-12-20T19:29:26;100914.44;;;1.35;100.00
38253;BME280;24785;52.372;20.672;2022-12-20T19:39:27;100915.06;;;1.37;100.00
38253;BME280;24785;52.372;20.672;2022-12-20T19:49:30;100907.75;;;1.39;100.00
38253;BME280;24785;52.372;20.672;2022-12-20T19:59:31;100890.91;;;1.40;100.00
38253;BME280;24785;52.372;20.672;2022-12-20T20:09:32;100905.97;;;1.46;100.00
38253;BME280;24785;52.372;20.672;2022-12-20T20:19:33;100881.34;;;1.39;100.00
38253;BME280;24785;52.372;20.672;2022-12-20T20:29:34;100887.25;;;1.35;100.00
38253;BME280;24785;52.372;20.672;2022-12-20T20:39:35;100909.16;;;1.35;100.00
38253;BME280;24785;52.372;20.672;2022-12-20T20:49:36;100885.41;;;1.35;100.00
38253;BME280;24785;52.372;20.672;2022-12-20T20:59:37;100871.38;;;1.35;100.00
38253;BME280;24785;52.372;20.672;2022-12-20T21:09:38;100888.84;;;1.36;100.00
38253;BME280;24785;52.372;20.672;2022-12-20T21:19:39;100860.63;;;1.36;100.00
38253;BME280;24785;52.372;20.672;2022-12-20T21:29:39;100864.72;;;1.45;100.00
38253;BME280;24785;52.372;20.672;2022-12-20T21:39:40;100865.31;;;1.47;100.00
38253;BME280;24785;52.372;20.672;2022-12-20T21:49:42;100847.03;;;1.52;100.00
38253;BME280;24785;52.372;20.672;2022-12-20T21:59:43;100824.47;;;1.63;100.00
38253;BME280;24785;52.372;20.672;2022-12-20T22:09:44;100830.38;;;1.65;100.00
38253;BME280;24785;52.372;20.672;2022-12-20T22:19:45;100834.63;;;1.73;100.00
38253;BME280;24785;52.372;20.672;2022-12-20T22:29:46;100837.03;;;1.87;100.00
38253;BME280;24785;52.372;20.672;2022-12-20T22:39:47;100827.72;;;1.72;100.00
38253;BME280;24785;52.372;20.672;2022-12-20T22:49:48;100799.50;;;1.59;100.00
38253;BME280;24785;52.372;20.672;2022-12-20T22:59:49;100797.28;;;1.49;100.00
38253;BME280;24785;52.372;20.672;2022-12-20T23:09:50;100794.22;;;1.46;100.00
38253;BME280;24785;52.372;20.672;2022-12-20T23:19:51;100780.81;;;1.34;100.00
38253;BME280;24785;52.372;20.672;2022-12-20T23:30:15;100745.28;;;1.23;100.00
38253;BME280;24785;52.372;20.672;2022-12-20T23:40:16;100714.03;;;1.14;100.00
38253;BME280;24785;52.372;20.672;2022-12-20T23:50:17;100744.47;;;1.03;100.00
